Time;durP1;ratioP1;P1;durP2;ratioP2;P2;SDS_P1;SDS_P2;PMS_P1;PMS_P2;Temp;Humidity;BMP_temperature;BMP_pressure;BME280_temperature;BME280_humidity;BME280_pressure;Samples;Min_cycle;Max_cycle;Signal;HPM_P1;HPM_P2
2021/10/28 00:12:31;;;;;;;22.77;14.95;;;;;;;7.73;59.05;101052.16;4452842;32;34129;-50
2021/10/28 00:15:01;;;;;;;26.53;15.97;;;;;;;7.87;58.61;101051.75;4452399;32;34013;-49
2021/10/28 00:20:11;;;;;;;25.37;16.45;;;;;;;7.88;58.74;101052.62;4452440;32;34193;-51
2021/10/28 00:22:39;;;;;;;22.27;14.90;;;;;;;7.74;59.29;101051.34;4452407;32;33192;-50
2021/10/28 00:25:07;;;;;;;20.15;14.48;;;;;;;7.79;59.14;101058.44;4452527;32;34701;-50
2021/10/28 00:27:35;;;;;;;21.67;15.32;;;;;;;7.84;58.49;101054.28;4451297;32;35650;-49
2021/10/28 00:30:03;;;;;;;21.85;15.10;;;;;;;7.85;58.35;101045.66;4450967;32;34977;-49
2021/10/28 00:32:30;;;;;;;22.50;14.98;;;;;;;7.76;58.74;101058.31;4452833;32;33475;-49
2021/10/28 00:34:58;;;;;;;19.52;13.95;;;;;;;7.82;58.45;101047.28;4454266;32;33929;-49
2021/10/28 00:37:25;;;;;;;21.23;14.15;;;;;;;7.82;58.17;101060.25;4454193;32;35663;-49
2021/10/28 00:39:53;;;;;;;22.27;15.13;;;;;;;7.80;57.95;101043.75;4454179;32;35016;-49
2021/10/28 00:42:22;;;;;;;22.95;14.48;;;;;;;7.86;57.62;101057.78;4454171;32;34271;-49
2021/10/28 00:44:49;;;;;;;20.25;13.98;;;;;;;7.80;57.79;101059.28;4454198;32;33894;-49
2021/10/28 00:47:17;;;;;;;23.12;14.60;;;;;;;7.63;58.30;101065.69;4454371;32;35753;-49
2021/10/28 00:49:45;;;;;;;22.80;14.77;;;;;;;7.71;58.22;101061.59;4454208;32;34190;-49
2021/10/28 00:52:12;;;;;;;20.92;14.15;;;;;;;7.82;57.81;101061.09;4454235;32;33303;-49
2021/10/28 00:54:41;;;;;;;24.00;14.85;;;;;;;7.57;58.47;101063.75;4453952;32;34049;-48
2021/10/28 00:57:10;;;;;;;22.77;15.40;;;;;;;7.56;58.43;101055.97;4454141;32;34451;-49
2021/10/28 00:59:37;;;;;;;25.77;15.05;;;;;;;7.62;58.46;101056.12;4454069;32;34117;-49
2021/10/28 01:02:04;;;;;;;24.58;14.45;;;;;;;7.51;58.86;101051.50;4454207;32;34256;-48
2021/10/28 01:04:32;;;;;;;22.52;14.57;;;;;;;7.57;58.56;101060.28;4453927;32;34550;-49
2021/10/28 01:07:00;;;;;;;22.77;15.27;;;;;;;7.51;58.51;101059.25;4452768;32;34888;-49
2021/10/28 01:09:27;;;;;;;21.37;14.98;;;;;;;7.54;58.42;101055.88;4452873;32;34084;-50
2021/10/28 01:11:55;;;;;;;22.13;14.60;;;;;;;7.50;58.45;101052.34;4454218;32;33334;-49
2021/10/28 01:14:23;;;;;;;24.65;15.57;;;;;;;7.41;58.61;101039.12;4452699;32;33552;-49
2021/10/28 01:16:57;;;;;;;18.55;13.52;;;;;;;7.43;58.78;101040.03;4453893;32;35729;-49
2021/10/28 01:19:25;;;;;;;21.55;14.20;;;;;;;7.44;58.64;101038.34;4454037;32;33907;-49
2021/10/28 01:21:53;;;;;;;22.75;14.60;;;;;;;7.47;58.22;101039.28;4453960;32;33476;-49
2021/10/28 01:24:20;;;;;;;22.15;14.80;;;;;;;7.41;58.33;101046.00;4453820;32;33873;-49
2021/10/28 01:26:48;;;;;;;21.85;14.07;;;;;;;7.40;58.14;101046.81;4453969;32;34699;-51
2021/10/28 01:29:15;;;;;;;21.80;13.55;;;;;;;7.41;58.03;101038.22;4453759;32;35185;-49
2021/10/28 01:31:43;;;;;;;20.80;13.95;;;;;;;7.23;58.34;101046.25;4454271;32;34285;-49
2021/10/28 01:34:14;;;;;;;22.27;14.20;;;;;;;7.36;57.85;101043.25;4453745;32;34703;-49
2021/10/28 01:36:41;;;;;;;22.30;15.00;;;;;;;7.20;58.32;101059.09;4453839;32;34725;-49
2021/10/28 01:39:17;;;;;;;21.70;14.25;;;;;;;7.22;58.20;101056.56;4453735;32;34655;-49
2021/10/28 01:41:44;;;;;;;21.12;14.45;;;;;;;7.30;58.18;101057.69;4453756;32;34291;-50
2021/10/28 01:44:12;;;;;;;26.80;14.45;;;;;;;7.24;58.18;101054.91;4453656;32;33721;-49
2021/10/28 01:46:39;;;;;;;20.27;13.98;;;;;;;7.17;58.47;101056.41;4453656;32;34892;-51
2021/10/28 01:49:07;;;;;;;21.67;14.70;;;;;;;7.12;58.71;101051.91;4453693;32;35068;-49
2021/10/28 01:51:35;;;;;;;23.15;15.05;;;;;;;6.82;59.78;101052.62;4453789;32;34231;-48
2021/10/28 01:54:04;;;;;;;21.48;15.02;;;;;;;6.85;59.67;101053.59;4453895;32;34548;-50
2021/10/28 01:56:32;;;;;;;22.85;13.73;;;;;;;7.06;59.37;101051.72;4453541;32;34955;-50
2021/10/28 01:58:59;;;;;;;22.55;15.07;;;;;;;7.19;59.00;101054.75;4453650;32;35074;-49
2021/10/28 02:01:27;;;;;;;19.20;13.15;;;;;;;7.15;58.73;101047.75;4453688;32;33303;-50
2021/10/28 02:03:55;;;;;;;21.23;14.07;;;;;;;7.00;59.19;101047.22;4453527;32;34222;-49
2021/10/28 02:06:22;;;;;;;21.23;13.77;;;;;;;6.97;59.23;101049.69;4453638;32;34705;-49
2021/10/28 02:08:50;;;;;;;20.33;13.65;;;;;;;7.02;58.74;101052.44;4453513;32;34488;-49
2021/10/28 02:11:17;;;;;;;23.05;14.30;;;;;;;7.04;58.59;101040.41;4453561;32;34296;-51
2021/10/28 02:13:45;;;;;;;18.62;13.07;;;;;;;6.99;58.59;101039.41;4453582;32;34029;-49
2021/10/28 02:16:14;;;;;;;20.95;13.60;;;;;;;7.03;58.30;101042.16;4453478;32;35733;-49
2021/10/28 02:18:41;;;;;;;20.20;13.85;;;;;;;6.94;58.38;101028.88;4453600;32;34392;-49
2021/10/28 02:21:09;;;;;;;21.12;13.07;;;;;;;6.79;58.79;101042.19;4452372;32;32948;-49
2021/10/28 02:23:36;;;;;;;17.95;12.75;;;;;;;6.93;58.49;101029.72;4452198;32;34333;-49
2021/10/28 02:26:04;;;;;;;21.00;13.38;;;;;;;6.99;58.23;101026.47;4453615;32;34885;-49
2021/10/28 02:28:31;;;;;;;22.30;13.35;;;;;;;7.00;57.96;101029.09;4453362;32;34623;-49
2021/10/28 02:30:59;;;;;;;22.48;13.05;;;;;;;6.79;58.40;101029.28;4453608;32;33306;-49
2021/10/28 02:33:27;;;;;;;19.45;12.73;;;;;;;6.57;59.02;101019.00;4453445;32;33744;-49
2021/10/28 02:35:54;;;;;;;22.15;13.60;;;;;;;6.74;58.72;101019.59;4453323;32;34958;-49
2021/10/28 02:38:22;;;;;;;20.98;13.13;;;;;;;6.83;58.13;101019.91;4453413;32;35015;-50
2021/10/28 02:40:49;;;;;;;21.05;13.43;;;;;;;6.67;58.55;101026.25;4453619;32;34295;-49
2021/10/28 02:43:17;;;;;;;17.58;11.93;;;;;;;6.73;58.44;101025.56;4453356;32;34570;-50
2021/10/28 02:45:44;;;;;;;19.35;12.70;;;;;;;6.71;58.39;101017.78;4453297;32;34739;-49
2021/10/28 02:48:12;;;;;;;18.77;12.07;;;;;;;6.75;58.12;101026.53;4453427;32;33868;-48
2021/10/28 02:50:41;;;;;;;20.40;12.85;;;;;;;6.74;58.29;101019.59;4453508;32;34136;-49
2021/10/28 02:53:08;;;;;;;20.83;13.27;;;;;;;6.72;58.40;101029.87;4453284;32;33805;-49
2021/10/28 02:55:36;;;;;;;23.12;13.20;;;;;;;6.60;59.02;101018.25;4452842;32;34958;-49
2021/10/28 02:58:03;;;;;;;20.42;13.62;;;;;;;6.71;58.69;101024.66;4452490;32;34990;-49
2021/10/28 03:00:31;;;;;;;23.30;14.00;;;;;;;6.46;59.55;101022.94;4453334;32;33406;-49
2021/10/28 03:02:59;;;;;;;23.77;14.50;;;;;;;6.68;58.99;101028.00;4452080;32;33655;-49
2021/10/28 03:05:27;;;;;;;19.50;13.60;;;;;;;6.57;59.40;101025.88;4453174;32;34838;-49
2021/10/28 03:07:54;;;;;;;22.30;13.88;;;;;;;6.72;59.00;101029.00;4453235;32;35158;-49
2021/10/28 03:10:22;;;;;;;26.10;13.50;;;;;;;6.75;58.86;101031.72;4453050;32;34739;-49
2021/10/28 03:12:52;;;;;;;23.38;14.60;;;;;;;6.60;59.29;101033.75;4452039;32;33644;-49
2021/10/28 03:15:20;;;;;;;21.37;14.00;;;;;;;6.57;59.59;101031.03;4453114;32;36678;-49
2021/10/28 03:25:52;;;;;;;21.70;14.10;;;;;;;6.67;58.93;101040.87;4453069;32;34742;-49
2021/10/28 03:28:22;;;;;;;20.12;13.57;;;;;;;6.62;59.30;101029.50;4452038;32;33809;-50
2021/10/28 03:30:50;;;;;;;18.95;13.45;;;;;;;6.50;59.58;101024.78;4453092;32;33346;-48
2021/10/28 03:33:20;;;;;;;23.20;14.45;;;;;;;6.57;59.16;101024.19;4453167;32;33810;-49
2021/10/28 03:35:48;;;;;;;22.52;14.55;;;;;;;6.58;58.94;101019.91;4453132;32;34934;-50
2021/10/28 03:38:32;;;;;;;21.15;12.85;;;;;;;6.66;58.94;101015.84;4453243;32;34119;-51
2021/10/28 03:57:46;;;;;;;19.60;13.40;;;;;;;6.57;58.82;101038.78;4452971;32;35829;-49
2021/10/28 04:00:34;;;;;;;23.95;13.88;;;;;;;6.59;58.68;101045.78;4451686;32;33884;-51
2021/10/28 04:30:40;;;;;;;20.77;13.75;;;;;;;6.31;58.63;101053.38;4452503;32;34973;-49
2021/10/28 04:33:08;;;;;;;18.45;12.90;;;;;;;6.21;58.95;101047.81;4452351;32;34257;-49
2021/10/28 04:35:35;;;;;;;21.70;13.00;;;;;;;6.32;58.51;101046.50;4451271;32;34950;-49
2021/10/28 04:38:03;;;;;;;19.15;12.82;;;;;;;6.33;58.43;101045.66;4452283;32;33791;-49
2021/10/28 04:40:31;;;;;;;21.15;12.75;;;;;;;6.32;58.50;101049.09;4452393;32;34705;-50
2021/10/28 04:42:58;;;;;;;19.00;13.05;;;;;;;6.29;58.50;101054.16;4452469;32;35162;-50
2021/10/28 04:45:26;;;;;;;20.92;13.43;;;;;;;6.19;58.64;101058.09;4452557;32;34280;-49
2021/10/28 04:47:53;;;;;;;18.80;13.18;;;;;;;6.13;58.77;101050.97;4452343;32;33744;-49
2021/10/28 04:50:20;;;;;;;26.25;13.73;;;;;;;6.26;58.42;101046.28;4452004;32;35764;-51
2021/10/28 04:52:48;;;;;;;17.85;13.65;;;;;;;6.25;58.57;101052.28;4452106;32;34554;-49
2021/10/28 04:55:16;;;;;;;18.73;13.48;;;;;;;6.01;59.33;101047.09;4452051;32;33414;-49
2021/10/28 04:57:43;;;;;;;23.05;13.98;;;;;;;6.17;58.85;101045.94;4452136;32;33820;-50
2021/10/28 05:00:11;;;;;;;23.60;14.02;;;;;;;5.98;59.28;101047.84;4452164;32;34692;-49
2021/10/28 05:02:38;;;;;;;24.08;14.05;;;;;;;5.99;59.40;101051.31;4451837;32;34126;-51
2021/10/28 05:05:06;;;;;;;22.65;14.43;;;;;;;6.05;59.05;101052.41;4452077;32;33357;-49
2021/10/28 05:07:34;;;;;;;22.77;14.48;;;;;;;6.05;58.86;101047.25;4451979;32;34738;-51
2021/10/28 05:10:03;;;;;;;19.58;14.60;;;;;;;5.99;58.92;101057.34;4451813;32;34828;-49
2021/10/28 05:12:30;;;;;;;22.58;14.07;;;;;;;6.15;58.58;101048.47;4450655;32;34307;-48
2021/10/28 05:14:58;;;;;;;20.23;14.15;;;;;;;6.15;58.49;101051.06;4450704;32;33880;-50
2021/10/28 05:17:25;;;;;;;20.58;14.35;;;;;;;5.97;59.01;101053.81;4452166;32;34678;-49
2021/10/28 05:19:53;;;;;;;22.08;14.13;;;;;;;5.97;58.91;101058.09;4452423;32;35590;-50
2021/10/28 05:22:21;;;;;;;23.90;14.35;;;;;;;6.12;58.28;101051.81;4454150;32;34718;-49
2021/10/28 05:24:49;;;;;;;23.62;14.02;;;;;;;6.17;58.19;101051.09;4454171;32;33272;-49
2021/10/28 05:27:16;;;;;;;20.70;14.57;;;;;;;6.07;58.49;101055.94;4454084;32;33848;-50
2021/10/28 05:30:03;;;;;;;19.58;13.98;;;;;;;5.98;58.80;101057.28;4453923;32;35607;-49
2021/10/28 05:32:31;;;;;;;24.27;14.82;;;;;;;6.02;58.47;101052.28;4453595;32;34345;-51
2021/10/28 05:34:59;;;;;;;22.90;14.10;;;;;;;6.05;58.55;101057.59;4454081;32;33594;-51
2021/10/28 05:37:28;;;;;;;43.70;24.12;;;;;;;5.89;58.94;101060.41;4453728;32;34609;-49
2021/10/28 05:39:59;;;;;;;29.23;18.17;;;;;;;6.47;79.03;101067.72;4453940;32;34769;-49
2021/10/28 05:42:28;;;;;;;29.48;18.37;;;;;;;6.64;64.99;101069.22;4453890;32;34140;-49
2021/10/28 05:44:55;;;;;;;25.77;18.08;;;;;;;6.56;59.03;101073.25;4453089;32;33384;-49
2021/10/28 05:47:23;;;;;;;26.77;16.90;;;;;;;6.47;58.08;101072.88;4453003;32;33846;-50
2021/10/28 05:50:15;;;;;;;26.00;17.52;;;;;;;6.41;58.09;101076.16;4454174;32;35644;-51
2021/10/28 05:52:45;;;;;;;33.90;18.75;;;;;;;6.30;58.40;101077.44;4453842;32;34482;-49
2021/10/28 05:55:14;;;;;;;35.47;19.58;;;;;;;6.28;58.63;101085.97;4453820;32;33847;-50
2021/10/28 05:57:42;;;;;;;31.62;18.60;;;;;;;6.42;58.55;101089.97;4453510;32;34269;-49
2021/10/28 06:00:10;;;;;;;32.38;20.08;;;;;;;6.60;58.27;101088.03;4453691;32;34741;-50
2021/10/28 06:02:38;;;;;;;34.65;21.08;;;;;;;6.67;58.44;101083.12;4453615;32;34384;-49
2021/10/28 06:05:06;;;;;;;29.95;20.37;;;;;;;6.73;58.33;101087.63;4453869;32;34218;-50
2021/10/28 06:07:34;;;;;;;32.28;20.58;;;;;;;6.65;58.67;101087.38;4453879;32;33836;-50
2021/10/28 06:10:02;;;;;;;25.25;17.77;;;;;;;6.64;58.87;101084.72;4453655;32;34460;-49
2021/10/28 06:12:43;;;;;;;32.22;19.83;;;;;;;6.97;57.95;101093.66;4453844;32;34333;-51
2021/10/28 06:15:12;;;;;;;32.28;22.17;;;;;;;6.92;58.27;101096.94;4453804;32;33336;-49
2021/10/28 06:17:49;;;;;;;25.17;18.25;;;;;;;7.08;57.75;101094.03;4453792;32;33835;-49
2021/10/28 06:20:17;;;;;;;27.23;18.33;;;;;;;7.02;57.82;101097.28;4452484;32;35791;-49
2021/10/28 06:22:45;;;;;;;29.10;18.00;;;;;;;6.93;58.31;101098.69;4452653;32;34978;-50
2021/10/28 06:25:12;;;;;;;35.50;19.08;;;;;;;7.18;57.89;101103.88;4453646;32;33959;-50
2021/10/28 06:27:40;;;;;;;25.37;17.95;;;;;;;7.19;57.93;101098.75;4453658;32;34607;-49
2021/10/28 06:30:08;;;;;;;30.55;19.00;;;;;;;7.30;59.61;101107.75;4453830;32;35735;-49
2021/10/28 06:32:57;;;;;;;36.50;19.10;;;;;;;7.44;58.46;101106.50;4453464;32;35130;-49
2021/10/28 06:35:25;;;;;;;31.65;20.75;;;;;;;7.60;58.06;101104.41;4453565;32;34174;-48
2021/10/28 06:37:53;;;;;;;37.28;20.65;;;;;;;7.69;57.97;101112.47;4453714;32;33384;-50
2021/10/28 06:40:23;;;;;;;38.08;25.25;;;;;;;7.72;58.17;101112.56;4453920;32;35625;-49
2021/10/28 06:42:51;;;;;;;40.42;25.95;;;;;;;7.89;57.88;101114.84;4452225;32;34648;-50
2021/10/28 06:45:19;;;;;;;49.10;25.15;;;;;;;8.15;57.24;101113.06;4454034;32;33309;-50
2021/10/28 06:47:47;;;;;;;41.75;24.55;;;;;;;8.18;57.61;101116.62;4453499;32;34147;-50
2021/10/28 06:50:18;;;;;;;36.95;24.17;;;;;;;8.36;57.31;101116.34;4452368;32;34382;-49
2021/10/28 06:55:24;;;;;;;43.30;25.65;;;;;;;8.70;56.72;101115.59;4453654;32;33004;-49
2021/10/28 07:03:08;;;;;;;44.17;24.00;;;;;;;8.98;56.72;101117.22;4453449;32;34747;-51
2021/10/28 07:05:37;;;;;;;45.35;25.33;;;;;;;9.08;56.92;101114.03;4451766;32;34140;-48
2021/10/28 07:08:05;;;;;;;44.75;25.77;;;;;;;9.19;56.90;101107.41;4453308;32;33806;-49
2021/10/28 07:10:33;;;;;;;47.40;25.30;;;;;;;9.33;56.67;101111.22;4453082;32;34866;-50
2021/10/28 07:13:06;;;;;;;42.13;24.27;;;;;;;9.62;56.04;101120.63;4453039;32;34936;-48
2021/10/28 07:15:41;;;;;;;35.28;21.37;;;;;;;9.77;55.79;101115.78;4453093;32;33524;-48
2021/10/28 07:26:36;;;;;;;34.50;21.33;;;;;;;10.29;55.01;101122.22;4453053;32;33296;-48
2021/10/28 08:05:29;;;;;;;33.30;20.42;;;;;;;12.25;50.92;101104.94;4452541;32;35669;-49
2021/10/28 08:22:04;;;;;;;33.53;20.60;;;;;;;12.93;49.31;101102.28;4452466;32;33616;-48
2021/10/28 08:30:26;;;;;;;31.37;22.60;;;;;;;13.28;48.81;101095.72;4450121;32;34090;-50
2021/10/28 08:32:54;;;;;;;;;;;;;;;13.36;48.86;101091.44;4452564;32;33485;-49
2021/10/28 08:35:41;;;;;;;35.55;22.98;;;;;;;13.40;48.43;101095.84;4452544;32;34022;-48
2021/10/28 08:38:09;;;;;;;34.03;23.30;;;;;;;13.65;47.31;101096.88;4452324;32;34544;-48
2021/10/28 08:40:36;;;;;;;36.20;22.92;;;;;;;13.71;47.39;101090.00;4452342;32;35125;-49
2021/10/28 08:43:04;;;;;;;32.63;22.62;;;;;;;13.56;47.78;101087.25;4452063;32;33389;-48
2021/10/28 08:45:35;;;;;;;40.67;25.60;;;;;;;13.79;47.58;101084.78;4451922;32;34100;-47
2021/10/28 08:48:06;;;;;;;38.03;24.27;;;;;;;13.69;47.96;101088.22;4452237;32;34602;-52
2021/10/28 08:50:41;;;;;;;36.78;25.12;;;;;;;13.94;47.32;101085.78;4451910;32;33548;-48
2021/10/28 08:53:21;;;;;;;42.13;24.73;;;;;;;13.97;47.39;101088.44;4452133;32;33300;-52
2021/10/28 08:55:59;;;;;;;34.50;23.83;;;;;;;13.82;47.88;101090.06;4453301;32;34715;-48
2021/10/28 09:26:46;;;;;;;36.50;25.15;;;;;;;14.52;46.35;101097.50;4454132;32;33614;-48
2021/10/28 09:32:24;;;;;;;36.97;25.20;;;;;;;14.74;45.53;101103.66;4453777;32;34877;-49
2021/10/28 09:43:47;;;;;;;36.13;24.30;;;;;;;15.03;44.74;101090.66;4453963;32;35565;-50
2021/10/28 09:52:02;;;;;;;33.03;21.67;;;;;;;15.15;43.48;101088.94;4453774;32;34520;-48
2021/10/28 10:00:14;;;;;;;35.08;21.87;;;;;;;15.47;41.45;101094.25;4452682;32;32731;-48
2021/10/28 10:02:44;;;;;;;34.10;22.13;;;;;;;15.29;41.97;101089.81;4453461;32;34070;-49
2021/10/28 10:05:21;;;;;;;33.35;22.37;;;;;;;15.36;42.18;101081.09;4453274;32;34813;-49
2021/10/28 10:07:53;;;;;;;32.30;22.58;;;;;;;15.80;41.49;101073.25;4453733;32;34217;-49
2021/10/28 10:10:27;;;;;;;31.65;21.37;;;;;;;15.74;41.30;101077.59;4453721;32;33383;-49
2021/10/28 10:12:57;;;;;;;26.58;18.50;;;;;;;15.63;41.46;101077.63;4453570;32;34686;-48
2021/10/28 10:15:25;;;;;;;23.75;14.15;;;;;;;15.69;40.31;101082.84;4453840;32;35724;-50
2021/10/28 10:18:02;;;;;;;27.05;15.52;;;;;;;15.77;38.69;101075.00;4452668;32;34154;-47
2021/10/28 10:20:35;;;;;;;20.88;14.93;;;;;;;15.85;38.79;101073.25;4453614;32;34283;-50
2021/10/28 12:53:39;;;;;;;20.23;11.52;;;;;;;17.01;34.61;100898.47;4453077;32;35274;-48
2021/10/28 12:57:09;;;;;;;15.07;10.02;;;;;;;16.80;35.11;100897.78;4454195;32;35083;-49
2021/10/28 13:51:34;;;;;;;17.35;10.60;;;;;;;17.12;34.93;100855.44;4453007;32;34109;-48
2021/10/28 15:02:34;;;;;;;19.25;11.73;;;;;;;16.29;38.96;100821.97;4450663;32;34627;-51
2021/10/28 15:38:17;;;;;;;20.55;14.75;;;;;;;14.76;44.54;100816.50;4453220;32;34821;-49
2021/10/28 16:24:06;;;;;;;52.38;29.48;;;;;;;12.73;49.01;100810.59;4452505;32;34131;-49
2021/10/28 16:26:34;;;;;;;78.15;33.92;;;;;;;12.77;49.84;100816.69;4452541;32;34426;-48
2021/10/28 16:29:06;;;;;;;81.22;36.33;;;;;;;12.56;49.60;100819.13;4452588;32;33853;-49
2021/10/28 16:31:36;;;;;;;94.60;39.72;;;;;;;12.52;49.57;100822.59;4450774;32;35568;-50
2021/10/28 16:34:04;;;;;;;85.43;38.40;;;;;;;12.49;49.54;100827.78;4451320;32;34291;-47
2021/10/28 16:36:32;;;;;;;106.40;40.33;;;;;;;12.43;49.57;100823.37;4452315;32;34404;-48
2021/10/28 16:39:03;;;;;;;84.13;41.05;;;;;;;12.46;49.52;100823.41;4451854;32;34516;-50
2021/10/28 16:41:30;;;;;;;80.27;39.60;;;;;;;12.47;49.52;100826.87;4451056;32;34973;-49
2021/10/28 16:43:59;;;;;;;71.68;40.80;;;;;;;12.30;49.63;100834.56;4452100;32;34928;-49
2021/10/28 16:46:26;;;;;;;85.22;41.60;;;;;;;12.24;49.79;100835.38;4452285;32;33186;-50
2021/10/28 16:48:55;;;;;;;75.53;39.42;;;;;;;12.16;49.89;100831.84;4450609;32;34335;-49
2021/10/28 16:51:23;;;;;;;76.00;37.78;;;;;;;12.23;50.53;100835.38;4450782;32;34275;-48
2021/10/28 16:53:51;;;;;;;70.82;35.85;;;;;;;12.04;50.64;100836.06;4451923;32;34396;-47
2021/10/28 16:56:19;;;;;;;72.37;33.92;;;;;;;12.14;49.81;100836.19;4451724;32;33265;-48
2021/10/28 16:58:47;;;;;;;74.82;35.30;;;;;;;12.11;49.82;100837.88;4452284;32;33763;-47
2021/10/28 17:01:15;;;;;;;67.97;34.45;;;;;;;12.02;50.13;100840.37;4451554;32;35751;-48
2021/10/28 17:03:43;;;;;;;75.45;35.63;;;;;;;12.01;49.97;100842.12;4452014;32;35148;-49
2021/10/28 17:06:15;;;;;;;64.10;32.20;;;;;;;11.80;50.50;100849.69;4451794;32;33431;-48
2021/10/28 17:08:43;;;;;;;68.05;31.52;;;;;;;11.78;50.35;100848.81;4451746;32;34835;-49
2021/10/28 17:11:12;;;;;;;63.78;31.48;;;;;;;11.71;50.49;100843.50;4450416;32;35084;-49
2021/10/28 17:13:40;;;;;;;60.63;29.20;;;;;;;11.79;50.33;100841.88;4451633;32;34213;-48
2021/10/28 17:16:07;;;;;;;65.90;29.50;;;;;;;11.66;50.59;100838.22;4452411;32;34497;-49
2021/10/28 17:18:35;;;;;;;52.10;27.83;;;;;;;11.63;50.70;100845.97;4453969;32;33657;-48
2021/10/28 17:21:05;;;;;;;57.03;30.37;;;;;;;11.42;51.07;100836.19;4454131;32;34859;-50
2021/10/28 17:23:36;;;;;;;55.45;29.12;;;;;;;11.22;51.56;100845.44;4453919;32;35958;-51
2021/10/28 17:26:04;;;;;;;56.92;28.95;;;;;;;11.31;51.44;100843.00;4454213;32;33430;-47
2021/10/28 17:28:34;;;;;;;48.90;27.40;;;;;;;11.30;51.38;100842.94;4453906;32;34683;-49
2021/10/28 17:31:04;;;;;;;50.70;29.85;;;;;;;11.20;51.91;100849.75;4453961;32;35816;-50
2021/10/28 17:33:34;;;;;;;57.50;29.87;;;;;;;11.21;51.51;100851.53;4454124;32;35115;-51
2021/10/28 17:36:04;;;;;;;51.47;27.48;;;;;;;11.05;51.86;100854.78;4453676;32;33302;-49
2021/10/28 17:38:32;;;;;;;49.03;27.25;;;;;;;11.06;51.83;100853.91;4453834;32;34434;-48
2021/10/28 17:41:04;;;;;;;53.33;27.90;;;;;;;11.07;51.88;100858.28;4453968;32;34953;-50
2021/10/28 17:43:48;;;;;;;49.20;26.45;;;;;;;11.03;51.98;100861.66;4452919;32;33882;-49
2021/10/28 17:46:16;;;;;;;53.23;33.03;;;;;;;10.72;52.62;100860.31;4452672;32;33406;-47
2021/10/28 17:48:43;;;;;;;53.85;33.53;;;;;;;10.96;51.93;100870.22;4453825;32;34684;-48
2021/10/28 17:51:11;;;;;;;53.67;31.95;;;;;;;10.74;52.51;100857.75;4453604;32;34657;-49
2021/10/28 17:53:39;;;;;;;44.42;30.67;;;;;;;10.74;52.37;100862.97;4452595;32;33876;-51
2021/10/28 17:56:07;;;;;;;49.45;30.02;;;;;;;10.62;52.64;100857.56;4453365;32;33719;-50
2021/10/28 17:58:36;;;;;;;45.70;29.87;;;;;;;10.64;52.64;100859.34;4452353;32;34146;-48
2021/10/28 18:01:03;;;;;;;48.75;29.52;;;;;;;10.58;52.78;100850.53;4453621;32;35004;-49
2021/10/28 18:03:32;;;;;;;42.05;27.92;;;;;;;10.65;52.68;100849.81;4453663;32;33957;-48
2021/10/28 18:06:00;;;;;;;43.35;26.50;;;;;;;10.50;52.76;100854.75;4453660;32;34559;-47
2021/10/28 18:08:36;;;;;;;40.05;25.88;;;;;;;10.61;52.44;100861.00;4449938;32;33738;-55
2021/10/28 18:11:11;;;;;;;35.63;23.55;;;;;;;10.28;53.32;100850.03;4453422;32;35374;-55
2021/10/28 18:13:41;;;;;;;39.03;22.98;;;;;;;10.31;53.28;100861.38;4452094;32;34011;-49
2021/10/28 18:16:09;;;;;;;34.55;22.58;;;;;;;10.32;53.45;100857.91;4453737;32;33763;-49
2021/10/28 18:18:38;;;;;;;34.38;23.62;;;;;;;10.36;53.35;100853.66;4453455;32;33643;-51
2021/10/28 18:21:05;;;;;;;29.98;22.15;;;;;;;10.13;53.67;100855.81;4451248;32;35730;-48
2021/10/28 18:23:38;;;;;;;32.10;21.52;;;;;;;9.96;53.96;100857.22;4451991;32;34822;-48
2021/10/28 18:26:06;;;;;;;30.27;21.62;;;;;;;10.20;53.24;100858.56;4451973;32;33216;-48
2021/10/28 18:28:33;;;;;;;35.63;23.08;;;;;;;10.20;53.33;100853.38;4453295;32;33775;-47
2021/10/28 18:31:01;;;;;;;43.00;24.87;;;;;;;10.07;53.67;100855.69;4453601;32;35809;-50
2021/10/28 18:33:29;;;;;;;35.97;24.63;;;;;;;10.14;53.41;100860.19;4453640;32;34201;-49
2021/10/28 18:35:56;;;;;;;36.95;22.73;;;;;;;10.09;53.36;100846.19;4453349;32;33420;-49
2021/10/28 18:38:26;;;;;;;40.42;23.98;;;;;;;9.81;53.89;100849.12;4453611;32;34687;-48
2021/10/28 18:40:56;;;;;;;36.95;22.45;;;;;;;9.94;53.68;100854.59;4452568;32;35701;-48
2021/10/28 18:43:26;;;;;;;38.17;23.15;;;;;;;9.87;53.88;100844.91;4453621;32;35256;-47
2021/10/28 18:45:54;;;;;;;32.65;22.55;;;;;;;9.80;54.02;100849.97;4453413;32;33156;-47
2021/10/28 18:48:23;;;;;;;30.62;22.15;;;;;;;9.82;53.83;100850.84;4452098;32;33753;-48
2021/10/28 18:50:50;;;;;;;39.63;23.25;;;;;;;9.80;53.94;100850.84;4453344;32;34825;-49
2021/10/28 18:53:18;;;;;;;37.00;22.08;;;;;;;9.65;54.24;100857.47;4452112;32;34191;-47
2021/10/28 18:55:46;;;;;;;35.63;22.55;;;;;;;9.82;53.93;100851.75;4451676;32;34050;-49
2021/10/28 18:58:14;;;;;;;39.45;25.23;;;;;;;9.82;53.77;100854.34;4453375;32;34080;-47
2021/10/28 19:00:41;;;;;;;36.90;20.70;;;;;;;9.50;54.54;100855.44;4451935;32;35291;-47
2021/10/28 19:03:09;;;;;;;38.45;21.73;;;;;;;9.42;54.89;100856.97;4453197;32;34116;-48
2021/10/28 19:05:39;;;;;;;37.60;21.60;;;;;;;9.51;54.67;100858.06;4453191;32;33237;-47
2021/10/28 19:08:06;;;;;;;32.15;21.62;;;;;;;9.46;54.90;100858.81;4453394;32;34761;-48
2021/10/28 19:10:34;;;;;;;35.03;23.02;;;;;;;9.33;55.14;100852.47;4453071;32;35778;-52
2021/10/28 19:13:01;;;;;;;35.05;23.70;;;;;;;9.43;54.82;100863.94;4453196;32;35212;-48
2021/10/28 19:15:29;;;;;;;32.67;22.23;;;;;;;9.49;54.62;100857.16;4453512;32;33290;-49
2021/10/28 19:17:57;;;;;;;32.28;20.73;;;;;;;9.28;55.12;100855.81;4453060;32;34481;-49
2021/10/28 19:20:26;;;;;;;35.35;21.95;;;;;;;9.44;54.69;100856.16;4451749;32;35280;-51
2021/10/28 19:22:54;;;;;;;35.95;22.52;;;;;;;9.28;55.14;100859.28;4453413;32;34191;-48
2021/10/28 19:25:22;;;;;;;44.28;24.75;;;;;;;9.44;54.64;100858.78;4453051;32;34294;-48
2021/10/28 19:27:56;;;;;;;41.45;26.87;;;;;;;9.41;54.60;100860.44;4453455;32;34019;-50
2021/10/28 19:30:37;;;;;;;40.95;25.55;;;;;;;9.26;54.87;100865.28;4453291;32;34713;-52
2021/10/28 19:33:10;;;;;;;47.28;30.25;;;;;;;9.19;55.13;100858.22;4450766;32;34293;-47
2021/10/28 19:35:41;;;;;;;41.28;28.35;;;;;;;9.19;55.27;100864.28;4452511;32;33452;-47
2021/10/28 19:41:16;;;;;;;41.20;26.27;;;;;;;8.91;55.85;100861.03;4452582;32;35555;-47
2021/10/28 19:46:33;;;;;;;34.42;22.37;;;;;;;9.07;55.38;100861.41;4451866;32;34236;-47
2021/10/28 19:49:01;;;;;;;33.10;22.25;;;;;;;9.03;55.42;100856.12;4439141;32;33182;-47
2021/10/28 19:51:28;;;;;;;34.80;22.52;;;;;;;8.98;55.38;100850.84;4452970;32;35820;-48
2021/10/28 19:53:56;;;;;;;35.30;21.35;;;;;;;8.96;55.45;100859.44;4451580;32;34366;-48
2021/10/28 19:56:24;;;;;;;37.03;21.15;;;;;;;9.08;54.88;100857.13;4449513;32;102235;-52
2021/10/28 19:58:57;;;;;;;44.08;22.17;;;;;;;8.99;55.12;100855.16;4452843;32;33841;-51
2021/10/28 20:20:20;;;;;;;36.78;24.45;;;;;;;8.59;56.27;100857.66;4451445;32;33708;-48
2021/10/28 20:22:49;;;;;;;36.08;24.10;;;;;;;8.58;56.18;100856.78;4452526;32;34891;-49
2021/10/28 20:25:20;;;;;;;36.30;25.02;;;;;;;8.60;56.15;100859.44;4452380;32;34219;-47
2021/10/28 20:27:50;;;;;;;37.83;24.70;;;;;;;8.61;56.31;100862.06;4451041;32;34267;-46
2021/10/28 20:30:24;;;;;;;37.28;23.30;;;;;;;8.57;68.71;100855.03;4452232;32;34787;-46
2021/10/28 20:32:52;;;;;;;32.40;21.67;;;;;;;8.79;56.15;100849.50;4452352;32;35373;-48
2021/10/28 20:37:52;;;;;;;35.30;22.37;;;;;;;8.67;55.69;100861.34;4452200;32;33812;-47
2021/10/28 20:40:20;;;;;;;35.47;21.52;;;;;;;8.65;55.50;100858.69;4452261;32;34670;-46
2021/10/28 20:42:48;;;;;;;35.65;23.48;;;;;;;8.64;55.32;100856.06;4450899;32;35788;-46
2021/10/28 20:45:18;;;;;;;35.78;23.10;;;;;;;8.44;55.92;100852.97;4438287;32;33777;-46
2021/10/28 20:47:47;;;;;;;33.88;21.95;;;;;;;8.54;55.62;100865.34;4452217;32;33955;-46
2021/10/28 20:50:16;;;;;;;31.00;21.12;;;;;;;8.47;55.83;100860.84;4452892;32;33861;-45